Rennes/Saint-Jacques Airport

Airport
ICAO code: 
LFRN
IATA Code: 
RNS
Summary
ICAO Region: 
EUR
Territory: 
Location: 
Saint-Jacques,
Serving: 
Rennes
Elevation: 
124 ft
Coordinates: 
Aerial View: 
48° 4' 16.024" N, 1° 43' 47.487" W
Metar
Observation
LFRN 020400Z AUTO 35010KT CAVOK 05/03 Q1011 NOSIG
Station
Rennes
Date/Time
2021-12-02 04:00:00
Wind direction
350°
Wind speed
10 kts
Lowest cloud amount
clouds and visibility OK
Temperature
5°C
Dew point
3°C
Humidity
86%
QNH
1011 hPa
Weather condition
n/a

Runways

Designator Length Width Surface Rops
14/32 850 30 ASP Yes/Yes
10/28 2100 45 ASP Yes/Yes
Airport map: 
Aerial View: 

SKYbrary Partners:

Safety knowledge contributed by: